Time;durP1;ratioP1;P1;durP2;ratioP2;P2;SDS_P1;SDS_P2;PMS_P1;PMS_P2;Temp;Humidity;BMP_temperature;BMP_pressure;BME280_temperature;BME280_humidity;BME280_pressure;Samples;Min_cycle;Max_cycle;Signal;HPM_P1;HPM_P2
2019/12/18 00:02:03;;;;;;;32.8;24.4;;;;;;;5;79.42578;956.6861;;;;
2019/12/18 00:04:28;;;;;;;30.1;25.7;;;;;;;5.05;79.59766;956.8599;;;;
2019/12/18 00:06:53;;;;;;;30.8;25.7;;;;;;;5.14;79.18457;956.8281;;;;
2019/12/18 00:09:18;;;;;;;31.5;25.6;;;;;;;5.05;79.52832;956.8755;;;;
2019/12/18 00:11:43;;;;;;;32.2;23.9;;;;;;;5.01;79.93848;956.9105;;;;
2019/12/18 00:14:08;;;;;;;31.2;22.5;;;;;;;5.04;80.50977;956.9433;;;;
2019/12/18 00:16:35;;;;;;;28.8;22.3;;;;;;;5.13;80.01563;956.9302;;;;
2019/12/18 00:18:59;;;;;;;31.8;23.1;;;;;;;5.25;79.51758;956.9753;;;;
2019/12/18 00:21:24;;;;;;;30;23.2;;;;;;;5.24;79.77051;956.9886;;;;
2019/12/18 00:23:49;;;;;;;29.8;23.6;;;;;;;5.23;79.96582;957.0123;;;;
2019/12/18 00:26:14;;;;;;;30.5;23.4;;;;;;;5.31;79.41406;957.1144;;;;
2019/12/18 00:28:40;;;;;;;29.2;23.6;;;;;;;5.36;79.23633;957.1152;;;;
2019/12/18 00:31:05;;;;;;;25;21.4;;;;;;;5.42;79.05273;957.1155;;;;
2019/12/18 00:33:30;;;;;;;26.4;22.2;;;;;;;5.48;79.01563;957.1503;;;;
2019/12/18 00:35:57;;;;;;;27.2;23.2;;;;;;;5.51;78.60742;957.2635;;;;
2019/12/18 00:43:10;;;;;;;26.8;21.5;;;;;;;5.58;78.97559;957.3053;;;;
2019/12/18 00:45:35;;;;;;;25.6;21.3;;;;;;;5.59;78.88672;957.3029;;;;
2019/12/18 00:48:00;;;;;;;22.8;17.6;;;;;;;5.59;79.11816;957.3884;;;;
2019/12/18 00:50:26;;;;;;;24.9;19.3;;;;;;;5.67;79.1543;957.3762;;;;
2019/12/18 00:52:51;;;;;;;25.9;20.1;;;;;;;5.72;78.7832;957.4472;;;;
2019/12/18 00:55:16;;;;;;;25.7;19.8;;;;;;;5.72;78.96875;957.4594;;;;
2019/12/18 00:57:41;;;;;;;23.5;19;;;;;;;5.8;78.77441;957.4494;;;;
2019/12/18 01:00:06;;;;;;;26.1;20.5;;;;;;;5.84;78.5625;957.5482;;;;
2019/12/18 01:02:31;;;;;;;26.3;20.6;;;;;;;5.81;78.61426;957.5822;;;;
2019/12/18 01:04:56;;;;;;;26.7;21.4;;;;;;;5.83;78.90723;957.5913;;;;
2019/12/18 01:07:21;;;;;;;25.3;21.3;;;;;;;5.83;78.7793;957.5858;;;;
2019/12/18 01:09:46;;;;;;;25.1;21;;;;;;;5.76;79.2998;957.5672;;;;
2019/12/18 01:12:11;;;;;;;25.2;19.9;;;;;;;5.61;80.28027;957.632;;;;
2019/12/18 01:14:36;;;;;;;26.3;19.8;;;;;;;5.54;80.6377;957.665;;;;
2019/12/18 01:17:02;;;;;;;26.4;20.9;;;;;;;5.67;80.02539;957.7528;;;;
2019/12/18 01:19:27;;;;;;;27.7;21.2;;;;;;;5.76;79.76563;957.8962;;;;
2019/12/18 01:21:52;;;;;;;27.7;22.3;;;;;;;5.81;79.70508;957.8484;;;;
2019/12/18 01:24:17;;;;;;;31;25.5;;;;;;;5.83;79.30176;957.8563;;;;
2019/12/18 01:26:42;;;;;;;29.5;23.7;;;;;;;5.71;79.83496;957.9372;;;;
2019/12/18 01:29:07;;;;;;;28.5;22.4;;;;;;;5.72;79.66406;957.9768;;;;
2019/12/18 01:31:32;;;;;;;28.7;21.7;;;;;;;5.74;79.80664;957.9865;;;;
2019/12/18 01:33:57;;;;;;;28.5;22.4;;;;;;;5.63;80.57324;958.0338;;;;
2019/12/18 01:36:22;;;;;;;23.1;20;;;;;;;5.69;80.16797;958.098;;;;
2019/12/18 01:38:48;;;;;;;26.8;22.2;;;;;;;5.81;79.18262;958.1181;;;;
2019/12/18 01:41:36;;;;;;;24.7;20.3;;;;;;;5.81;79.66895;958.1333;;;;
2019/12/18 01:44:31;;;;;;;23.9;20.1;;;;;;;5.81;79.4834;958.1949;;;;
2019/12/18 01:46:34;;;;;;;26;20.4;;;;;;;5.87;79.44824;958.2344;;;;
2019/12/18 01:49:00;;;;;;;25.9;21;;;;;;;5.82;80.14551;958.4965;;;;
2019/12/18 01:51:25;;;;;;;26.6;22.4;;;;;;;5.78;80.73047;958.5237;;;;
2019/12/18 01:53:50;;;;;;;27.4;23.1;;;;;;;5.58;81.24805;958.307;;;;
2019/12/18 01:56:15;;;;;;;25.8;21.5;;;;;;;5.56;81.68555;958.4105;;;;
2019/12/18 01:58:40;;;;;;;22.7;18.6;;;;;;;5.79;80.58105;958.6163;;;;
2019/12/18 02:01:05;;;;;;;25.3;20.9;;;;;;;5.78;80.91602;958.6868;;;;
2019/12/18 02:03:49;;;;;;;28.4;22.5;;;;;;;5.61;81.86719;958.5147;;;;
2019/12/18 02:06:00;;;;;;;25.3;20.4;;;;;;;5.66;81.77344;958.5974;;;;
2019/12/18 02:08:20;;;;;;;25.1;19.3;;;;;;;5.83;81.08691;958.6696;;;;
2019/12/18 02:10:45;;;;;;;22.8;19.8;;;;;;;5.78;81.04395;958.723;;;;
2019/12/18 02:13:11;;;;;;;24.8;20.1;;;;;;;5.81;80.93457;958.6603;;;;
2019/12/18 02:15:36;;;;;;;25.8;20.8;;;;;;;5.65;81.95508;958.6378;;;;
2019/12/18 02:18:01;;;;;;;26.3;19.6;;;;;;;5.69;81.79004;958.7056;;;;
2019/12/18 02:20:26;;;;;;;23.9;19.2;;;;;;;5.7;81.7002;958.7511;;;;
2019/12/18 02:22:51;;;;;;;22.4;18;;;;;;;5.87;80.83984;958.7194;;;;
2019/12/18 02:25:16;;;;;;;20.9;16.9;;;;;;;5.97;80.38477;958.7736;;;;
2019/12/18 02:27:41;;;;;;;20.3;16.6;;;;;;;6.09;79.80273;958.8036;;;;
2019/12/18 02:30:06;;;;;;;21.8;16.4;;;;;;;6.13;79.22949;958.8879;;;;
2019/12/18 02:32:32;;;;;;;21.8;16.8;;;;;;;6.21;79.07031;958.9844;;;;
2019/12/18 02:34:57;;;;;;;24.2;17.9;;;;;;;6.15;79.68457;959.0906;;;;
2019/12/18 02:37:22;;;;;;;24.5;20.5;;;;;;;6.13;79.80957;959.0867;;;;
2019/12/18 02:39:47;;;;;;;25.5;19.9;;;;;;;6.08;79.9502;959.1663;;;;
2019/12/18 02:42:12;;;;;;;25.8;20.6;;;;;;;6.03;80.13867;959.2205;;;;
2019/12/18 02:44:37;;;;;;;22;18.7;;;;;;;6.1;80.07129;959.2067;;;;
2019/12/18 02:47:02;;;;;;;24.2;19.9;;;;;;;6.08;79.8125;959.2021;;;;
2019/12/18 02:49:27;;;;;;;25.6;19.9;;;;;;;5.94;80.41113;959.235;;;;
2019/12/18 02:51:52;;;;;;;23.7;19.5;;;;;;;6.02;80.06641;959.2388;;;;
2019/12/18 02:54:17;;;;;;;26;19.3;;;;;;;6.04;80.00195;959.3063;;;;
2019/12/18 02:56:42;;;;;;;24.3;18.4;;;;;;;6.11;80.01465;959.3292;;;;
2019/12/18 02:59:07;;;;;;;28.1;20;;;;;;;6.17;79.84082;959.3468;;;;
2019/12/18 03:01:33;;;;;;;25;18.8;;;;;;;6.18;79.49414;959.4124;;;;
2019/12/18 03:03:58;;;;;;;26.1;20.7;;;;;;;6.23;79.37598;959.4821;;;;
2019/12/18 03:06:23;;;;;;;28.3;20.3;;;;;;;6.12;79.80957;959.5284;;;;
2019/12/18 03:08:48;;;;;;;24.3;19.1;;;;;;;6.08;79.89355;959.6404;;;;
2019/12/18 03:13:38;;;;;;;28.7;20.4;;;;;;;6.11;80.62988;959.6264;;;;
2019/12/18 03:16:03;;;;;;;28.2;20.8;;;;;;;6.13;80.28516;959.6314;;;;
2019/12/18 03:18:28;;;;;;;26.6;19.9;;;;;;;6.15;80.27832;959.6266;;;;
2019/12/18 03:20:53;;;;;;;26.5;18.1;;;;;;;6.08;80.25195;959.6177;;;;
2019/12/18 03:23:18;;;;;;;21.5;17.1;;;;;;;6.08;80.18262;959.6451;;;;
2019/12/18 03:25:43;;;;;;;21.7;15.5;;;;;;;6.19;79.49609;959.6906;;;;
2019/12/18 03:28:08;;;;;;;23;18.4;;;;;;;6.13;79.6582;959.6342;;;;
2019/12/18 03:30:57;;;;;;;23.4;18;;;;;;;6.11;79.58594;959.5747;;;;
2019/12/18 03:32:59;;;;;;;24.3;17.3;;;;;;;6.1;79.66504;959.5906;;;;
2019/12/18 03:35:24;;;;;;;20.9;17.1;;;;;;;6.14;79.4873;959.5906;;;;
2019/12/18 03:37:49;;;;;;;23.3;17.3;;;;;;;6.05;79.84082;959.6682;;;;
2019/12/18 03:40:14;;;;;;;21.7;17.9;;;;;;;6;79.91406;959.6357;;;;
2019/12/18 03:42:39;;;;;;;19.9;16.4;;;;;;;6.01;79.9502;959.588;;;;
2019/12/18 03:45:04;;;;;;;21.1;15.8;;;;;;;5.98;79.51465;959.5903;;;;
2019/12/18 03:47:29;;;;;;;18.8;15.6;;;;;;;6.01;79.38184;959.5958;;;;
2019/12/18 03:49:54;;;;;;;19.4;16.7;;;;;;;5.95;79.15234;959.6451;;;;
2019/12/18 03:52:19;;;;;;;19.6;16.5;;;;;;;5.91;79.51367;959.7217;;;;
2019/12/18 03:54:44;;;;;;;18.5;16;;;;;;;5.81;79.87793;959.7297;;;;
2019/12/18 03:57:09;;;;;;;19.3;15.4;;;;;;;5.95;79.42871;959.8358;;;;
2019/12/18 03:59:34;;;;;;;20.7;15.4;;;;;;;5.95;79.05957;959.9292;;;;
2019/12/18 04:02:27;;;;;;;18.4;15;;;;;;;5.91;79.31641;959.9436;;;;
2019/12/18 04:04:52;;;;;;;19;15.5;;;;;;;5.99;79.03125;960.045;;;;
2019/12/18 04:07:17;;;;;;;18.7;15.6;;;;;;;5.98;79.21289;960.1209;;;;
2019/12/18 04:09:42;;;;;;;18.5;15.1;;;;;;;5.96;79.12891;960.159;;;;
2019/12/18 04:12:07;;;;;;;20.9;16.2;;;;;;;5.83;80.08984;960.2946;;;;
2019/12/18 04:14:33;;;;;;;21.7;18;;;;;;;5.75;80.95605;960.3261;;;;
2019/12/18 04:16:59;;;;;;;20.7;16.3;;;;;;;5.82;80.52832;960.2378;;;;
2019/12/18 04:19:22;;;;;;;20.2;16.8;;;;;;;5.79;80.7666;960.3289;;;;
2019/12/18 04:21:47;;;;;;;22.4;16.4;;;;;;;5.91;80.4541;960.3592;;;;
2019/12/18 04:24:12;;;;;;;20.1;16.5;;;;;;;5.84;80.84668;960.4127;;;;
2019/12/18 04:26:37;;;;;;;18.3;14.8;;;;;;;5.96;80.50879;960.41;;;;
2019/12/18 04:29:02;;;;;;;20.7;16.2;;;;;;;5.95;80.42383;960.3728;;;;
2019/12/18 04:31:27;;;;;;;18.6;14.6;;;;;;;6.03;80.37109;960.2966;;;;
2019/12/18 04:33:53;;;;;;;16.8;13.9;;;;;;;6.01;79.88086;960.2698;;;;
2019/12/18 04:36:18;;;;;;;19;14.4;;;;;;;5.99;79.8291;960.3303;;;;
2019/12/18 04:38:43;;;;;;;18;13.8;;;;;;;5.9;80.24316;960.2305;;;;
2019/12/18 04:41:08;;;;;;;17.4;13.9;;;;;;;5.81;80.67773;960.3812;;;;
2019/12/18 04:43:33;;;;;;;15.5;13.4;;;;;;;5.93;80.30664;960.4615;;;;
2019/12/18 04:45:58;;;;;;;15.2;11.5;;;;;;;6.01;79.75293;960.4517;;;;
2019/12/18 04:48:23;;;;;;;15.1;12.4;;;;;;;6.01;79.93848;960.3894;;;;
2019/12/18 04:50:48;;;;;;;14.3;12.5;;;;;;;6.04;79.93359;960.4863;;;;
2019/12/18 04:53:13;;;;;;;14.9;11.8;;;;;;;6.04;80.10742;960.4733;;;;
2019/12/18 04:55:38;;;;;;;12.8;11.2;;;;;;;6.15;79.57031;960.5206;;;;
2019/12/18 04:58:03;;;;;;;13.6;11.4;;;;;;;6.2;79.36035;960.6384;;;;
2019/12/18 05:00:35;;;;;;;14.9;11.6;;;;;;;6.08;80.0332;960.7564;;;;
2019/12/18 05:05:45;;;;;;;12.2;9.8;;;;;;;6.23;79.2832;960.7211;;;;
2019/12/18 05:07:44;;;;;;;13.5;10.7;;;;;;;6.24;79.08789;960.7183;;;;
2019/12/18 05:10:09;;;;;;;14.4;10.8;;;;;;;6.24;79.33008;960.808;;;;
2019/12/18 05:12:34;;;;;;;11.5;10;;;;;;;6.23;79.64355;960.7894;;;;
2019/12/18 05:15:00;;;;;;;12.1;10.5;;;;;;;6.22;79.33789;960.7559;;;;
2019/12/18 05:17:25;;;;;;;12.4;9.4;;;;;;;6.32;79.05664;960.7723;;;;
2019/12/18 05:19:50;;;;;;;14.4;10;;;;;;;6.26;79.47559;960.8198;;;;
2019/12/18 05:22:15;;;;;;;12.2;10.2;;;;;;;6.21;80.02246;960.9403;;;;
2019/12/18 05:24:40;;;;;;;11.6;9.9;;;;;;;6.23;79.78223;960.9729;;;;
2019/12/18 05:27:05;;;;;;;10.4;8.5;;;;;;;6.31;79.33301;960.962;;;;
2019/12/18 05:29:30;;;;;;;12.7;9.5;;;;;;;6.26;79.71777;961.0117;;;;
2019/12/18 05:31:55;;;;;;;11.7;9.1;;;;;;;6.34;79.60645;960.9701;;;;
2019/12/18 05:34:20;;;;;;;11.7;8.4;;;;;;;6.39;79.12695;961.0144;;;;
2019/12/18 05:36:45;;;;;;;11.6;9.1;;;;;;;6.38;79.18359;960.9838;;;;
2019/12/18 05:39:11;;;;;;;10.1;8.3;;;;;;;6.43;78.91309;960.9492;;;;
2019/12/18 05:41:36;;;;;;;10.6;9.5;;;;;;;6.34;79.52539;961.0784;;;;
2019/12/18 05:44:01;;;;;;;11.2;9;;;;;;;6.34;79.74414;961.0213;;;;
2019/12/18 05:46:26;;;;;;;10.9;9.2;;;;;;;6.39;79.51172;960.9818;;;;
2019/12/18 05:48:51;;;;;;;11.2;8.4;;;;;;;6.42;79.2959;960.9875;;;;
2019/12/18 05:51:16;;;;;;;12.9;9.8;;;;;;;6.49;79.01758;960.9891;;;;
2019/12/18 05:53:41;;;;;;;13.5;10.2;;;;;;;6.41;79.52344;961.1016;;;;
2019/12/18 05:56:07;;;;;;;11.3;8.9;;;;;;;6.43;79.42383;961.1553;;;;
2019/12/18 05:58:32;;;;;;;11.6;9;;;;;;;6.46;79.34961;961.2181;;;;
2019/12/18 06:00:57;;;;;;;14.5;10;;;;;;;6.44;79.55371;961.2988;;;;
2019/12/18 06:03:22;;;;;;;12.5;9.8;;;;;;;6.5;79.20508;961.3187;;;;
2019/12/18 06:05:47;;;;;;;11.3;9.2;;;;;;;6.44;79.49512;961.3334;;;;
2019/12/18 06:08:12;;;;;;;10.3;8.5;;;;;;;6.52;79.62793;961.3735;;;;
2019/12/18 06:10:37;;;;;;;13.4;9;;;;;;;6.52;79.56836;961.3792;;;;
2019/12/18 06:13:02;;;;;;;11.6;9.3;;;;;;;6.5;79.9248;961.3979;;;;
2019/12/18 06:15:28;;;;;;;12.2;8.6;;;;;;;6.49;79.92285;961.4649;;;;
2019/12/18 06:17:53;;;;;;;9.8;8;;;;;;;6.31;81.17871;961.5814;;;;
2019/12/18 06:20:18;;;;;;;12;8.7;;;;;;;6.3;81.32715;961.5175;;;;
2019/12/18 06:22:43;;;;;;;9.4;7.2;;;;;;;6.47;80.69727;961.5134;;;;
2019/12/18 06:25:25;;;;;;;8.6;7.3;;;;;;;6.6;81.01074;961.5563;;;;
2019/12/18 06:27:50;;;;;;;9.9;7.9;;;;;;;6.62;79.82031;961.58;;;;
2019/12/18 06:30:15;;;;;;;10.6;8.3;;;;;;;6.53;80.52344;961.6219;;;;
2019/12/18 06:32:40;;;;;;;10;7.4;;;;;;;6.57;79.96094;961.6337;;;;
2019/12/18 06:35:05;;;;;;;12.2;8.1;;;;;;;6.53;80.44238;961.6633;;;;
2019/12/18 06:37:31;;;;;;;11.5;7.1;;;;;;;6.64;80.62598;961.692;;;;
2019/12/18 06:42:21;;;;;;;8.8;7.1;;;;;;;6.72;80.15137;961.7075;;;;
2019/12/18 06:44:46;;;;;;;10.3;7.6;;;;;;;6.69;79.74121;961.7798;;;;
2019/12/18 06:47:11;;;;;;;12.7;8.1;;;;;;;6.69;79.9375;961.8656;;;;
2019/12/18 06:49:36;;;;;;;11.8;8.2;;;;;;;6.64;80.27734;961.9355;;;;
2019/12/18 06:52:01;;;;;;;11.3;7.7;;;;;;;6.66;80.15137;961.9352;;;;
2019/12/18 06:54:26;;;;;;;10.7;7.6;;;;;;;6.71;79.9873;961.9983;;;;
2019/12/18 06:56:51;;;;;;;9.7;7.6;;;;;;;6.69;80.14453;961.9959;;;;
2019/12/18 06:59:16;;;;;;;11.4;8.1;;;;;;;6.68;80.28223;962.1379;;;;
2019/12/18 07:01:42;;;;;;;9.7;7.3;;;;;;;6.71;80.34766;962.1277;;;;
2019/12/18 07:04:07;;;;;;;10.9;8.2;;;;;;;6.7;80.3457;962.1902;;;;
2019/12/18 07:06:32;;;;;;;10.6;7.2;;;;;;;6.69;80.65625;962.1738;;;;
2019/12/18 07:08:57;;;;;;;8.9;7;;;;;;;6.72;80.11816;962.2188;;;;
2019/12/18 07:11:22;;;;;;;11.3;7.5;;;;;;;6.73;80.13184;962.2216;;;;
2019/12/18 07:13:50;;;;;;;8.8;7.1;;;;;;;6.76;80.26465;962.195;;;;
2019/12/18 07:16:12;;;;;;;9;7.6;;;;;;;6.7;80.59082;962.2401;;;;
2019/12/18 07:18:38;;;;;;;9.6;6.8;;;;;;;6.71;80.58105;962.2914;;;;
2019/12/18 07:21:03;;;;;;;13.2;7.3;;;;;;;6.69;80.92285;962.3419;;;;
2019/12/18 07:23:28;;;;;;;10.5;6.5;;;;;;;6.7;80.83398;962.3674;;;;
2019/12/18 07:25:53;;;;;;;10.1;5.8;;;;;;;6.7;80.8584;962.4236;;;;
2019/12/18 07:28:18;;;;;;;8.7;6.7;;;;;;;6.75;80.91309;962.423;;;;
2019/12/18 07:31:00;;;;;;;9.3;6.8;;;;;;;6.81;80.50684;962.4334;;;;
2019/12/18 07:33:08;;;;;;;9.2;6.2;;;;;;;6.8;80.13281;962.3983;;;;
2019/12/18 07:35:34;;;;;;;7.9;6.3;;;;;;;6.89;79.94238;962.459;;;;
2019/12/18 07:37:59;;;;;;;7.3;5.1;;;;;;;6.99;78.98242;962.4853;;;;
2019/12/18 07:40:24;;;;;;;8.6;6;;;;;;;7.05;79.2373;962.5227;;;;
2019/12/18 07:42:49;;;;;;;6.7;5.4;;;;;;;7.17;78.3877;962.5717;;;;
2019/12/18 07:45:15;;;;;;;8.9;6.1;;;;;;;7.26;78.23926;962.587;;;;
2019/12/18 07:47:40;;;;;;;9.9;6.7;;;;;;;7.37;78.0625;962.5875;;;;
2019/12/18 07:50:05;;;;;;;10.5;8;;;;;;;7.47;77.68652;962.6786;;;;
2019/12/18 07:52:30;;;;;;;9.8;7.1;;;;;;;7.57;77.13379;962.6844;;;;
2019/12/18 07:54:55;;;;;;;10.1;6.3;;;;;;;7.66;76.7666;962.6738;;;;
2019/12/18 07:57:20;;;;;;;8.5;6.1;;;;;;;7.75;76.98047;962.7117;;;;
2019/12/18 07:59:45;;;;;;;7.2;5.6;;;;;;;7.94;76.2793;962.7227;;;;
2019/12/18 08:02:11;;;;;;;8.6;6.2;;;;;;;8.03;76.07422;962.7604;;;;
2019/12/18 08:04:36;;;;;;;10.1;6.1;;;;;;;8.16;75.38574;962.8022;;;;
2019/12/18 08:07:01;;;;;;;9;6.9;;;;;;;8.3;74.93262;962.8141;;;;
2019/12/18 08:09:26;;;;;;;9.6;7.6;;;;;;;8.38;74.92285;962.8796;;;;
2019/12/18 08:11:51;;;;;;;12.6;7.3;;;;;;;8.37;75.16797;962.8706;;;;
2019/12/18 08:14:17;;;;;;;11.2;6.6;;;;;;;8.57;74.26758;962.9731;;;;
2019/12/18 08:16:42;;;;;;;10.1;6.7;;;;;;;8.49;74.93164;962.9127;;;;
2019/12/18 08:19:07;;;;;;;11.1;6.8;;;;;;;8.53;74.94824;962.9462;;;;
2019/12/18 08:21:32;;;;;;;9.8;6.1;;;;;;;8.59;74.46875;962.9978;;;;
2019/12/18 08:23:57;;;;;;;8.8;6.3;;;;;;;8.65;74.49219;963.0597;;;;
2019/12/18 08:26:22;;;;;;;10.1;5.8;;;;;;;8.54;74.78906;963.0449;;;;
2019/12/18 08:28:47;;;;;;;11;5.8;;;;;;;8.59;74.97168;963.1613;;;;
2019/12/18 08:31:12;;;;;;;7.8;5.7;;;;;;;8.61;74.91602;963.1422;;;;
2019/12/18 08:33:38;;;;;;;10.9;6.4;;;;;;;8.66;74.20215;963.1655;;;;
2019/12/18 08:36:03;;;;;;;10.4;6.1;;;;;;;8.73;74.30762;963.2068;;;;
2019/12/18 08:38:28;;;;;;;9.3;6.4;;;;;;;8.81;74.48438;963.16;;;;
2019/12/18 08:40:53;;;;;;;9;6.6;;;;;;;8.93;74.50586;963.2009;;;;
2019/12/18 08:43:18;;;;;;;12.8;6.5;;;;;;;9.11;73.60059;963.1959;;;;
2019/12/18 08:45:43;;;;;;;12.5;5.6;;;;;;;9.39;72.83203;963.1764;;;;
2019/12/18 08:48:09;;;;;;;8.1;5.6;;;;;;;9.73;71.74316;963.2173;;;;
2019/12/18 08:50:34;;;;;;;11.6;5.9;;;;;;;9.99;70.8125;963.1517;;;;
2019/12/18 08:52:59;;;;;;;9.2;6;;;;;;;10.4;70.43555;963.1833;;;;
2019/12/18 08:55:24;;;;;;;9.6;6.1;;;;;;;10.7;70.07422;963.1791;;;;
2019/12/18 08:57:49;;;;;;;10.7;6.1;;;;;;;10.86;68.36523;963.202;;;;
2019/12/18 09:00:14;;;;;;;9.1;5.2;;;;;;;10.9;66.23633;963.2406;;;;
2019/12/18 09:02:40;;;;;;;11.8;5.2;;;;;;;10.86;66.74609;963.2349;;;;
2019/12/18 09:05:05;;;;;;;10.6;5.2;;;;;;;10.9;65.59082;963.3181;;;;
2019/12/18 09:07:30;;;;;;;10;5.1;;;;;;;10.93;64.5166;963.3118;;;;
2019/12/18 09:09:55;;;;;;;12.3;5.1;;;;;;;11.08;64.56348;963.2834;;;;
2019/12/18 09:12:20;;;;;;;10.8;4.9;;;;;;;11.44;63.95898;963.2516;;;;
2019/12/18 09:14:45;;;;;;;10.1;4.8;;;;;;;11.89;62.08496;963.2626;;;;
2019/12/18 09:17:11;;;;;;;7.4;4.4;;;;;;;12.25;60.30273;963.1859;;;;
2019/12/18 09:19:36;;;;;;;9.9;4.4;;;;;;;12.21;59.75488;963.2247;;;;
2019/12/18 09:22:01;;;;;;;7;4;;;;;;;11.93;59.96191;963.3514;;;;
2019/12/18 09:24:26;;;;;;;9.3;4.5;;;;;;;11.95;61.12891;963.4117;;;;
2019/12/18 09:26:51;;;;;;;8.8;4.2;;;;;;;11.94;60.99805;963.4108;;;;
2019/12/18 09:29:16;;;;;;;5.4;3.5;;;;;;;12.01;61.39746;963.3929;;;;
2019/12/18 09:31:42;;;;;;;8.2;3.8;;;;;;;12.11;61.05762;963.4352;;;;
2019/12/18 09:34:07;;;;;;;6.8;3.7;;;;;;;12.15;60.15723;963.4899;;;;
2019/12/18 09:36:32;;;;;;;7.4;3.7;;;;;;;12.25;60.74805;963.4391;;;;
2019/12/18 09:38:57;;;;;;;8.8;4;;;;;;;12.27;60.80957;963.4387;;;;
2019/12/18 09:41:22;;;;;;;9.1;3.7;;;;;;;12.35;60.69141;963.4072;;;;
2019/12/18 09:43:47;;;;;;;8;3.7;;;;;;;12.44;60.86816;963.4246;;;;
2019/12/18 09:46:55;;;;;;;7.2;3.6;;;;;;;12.56;60.83984;963.423;;;;
2019/12/18 09:48:38;;;;;;;8.7;4;;;;;;;12.64;61.00293;963.3956;;;;
2019/12/18 09:51:03;;;;;;;8.7;3.9;;;;;;;12.69;61.51563;963.4409;;;;
2019/12/18 09:53:28;;;;;;;6.5;3.8;;;;;;;12.72;60.73145;963.4844;;;;
2019/12/18 09:55:53;;;;;;;10.4;4;;;;;;;12.7;60.10449;963.533;;;;
2019/12/18 09:58:38;;;;;;;9.2;4.1;;;;;;;12.7;59.45801;963.5464;;;;
2019/12/18 10:00:44;;;;;;;9.6;4.7;;;;;;;12.73;60.69824;963.5461;;;;
2019/12/18 10:03:09;;;;;;;10.9;4.5;;;;;;;12.7;59.50488;963.5122;;;;
2019/12/18 10:05:34;;;;;;;9.1;4.4;;;;;;;12.72;59.14258;963.5304;;;;
2019/12/18 10:08:04;;;;;;;9.2;4.5;;;;;;;12.8;59.26953;963.5242;;;;
2019/12/18 10:10:25;;;;;;;9.9;4.6;;;;;;;12.89;59.2832;963.5489;;;;
2019/12/18 10:12:49;;;;;;;17.6;4.7;;;;;;;12.83;60.7002;963.6685;;;;
2019/12/18 10:15:14;;;;;;;10.1;4.5;;;;;;;12.76;60.84375;963.6675;;;;
2019/12/18 10:17:39;;;;;;;8.8;4.1;;;;;;;12.72;60.29492;963.6101;;;;
2019/12/18 10:20:04;;;;;;;12.6;4.6;;;;;;;12.8;61.10742;963.5242;;;;
2019/12/18 10:22:29;;;;;;;9.8;4.4;;;;;;;12.9;60.96875;963.493;;;;
2019/12/18 10:24:54;;;;;;;13.6;4.6;;;;;;;12.89;63.12598;963.4303;;;;
2019/12/18 10:27:20;;;;;;;13.1;5;;;;;;;12.86;63.75684;963.5006;;;;
2019/12/18 10:29:45;;;;;;;10.2;4.2;;;;;;;12.85;63.58887;963.512;;;;
2019/12/18 10:32:10;;;;;;;10.4;4.4;;;;;;;12.9;64.06836;963.577;;;;
2019/12/18 10:34:35;;;;;;;10.8;4;;;;;;;12.97;63.68848;963.5858;;;;
2019/12/18 10:37:00;;;;;;;12.7;4.3;;;;;;;13.08;63.50488;963.6036;;;;
2019/12/18 10:39:25;;;;;;;12.2;4.5;;;;;;;13.1;62.04688;963.5613;;;;
2019/12/18 10:41:51;;;;;;;14.1;4;;;;;;;13.08;59.59082;963.5513;;;;
2019/12/18 10:44:16;;;;;;;8;3.9;;;;;;;13.02;60.50293;963.5442;;;;
2019/12/18 10:46:41;;;;;;;10.6;4;;;;;;;13.03;60.64551;963.5226;;;;
2019/12/18 10:49:06;;;;;;;10.4;4.3;;;;;;;13.06;59.56445;963.5197;;;;
2019/12/18 10:51:31;;;;;;;11.2;4.1;;;;;;;13;59.09668;963.4796;;;;
2019/12/18 10:53:56;;;;;;;16.7;4.3;;;;;;;12.98;60.60352;963.4172;;;;
2019/12/18 10:56:21;;;;;;;8.9;4.1;;;;;;;13.01;60.06445;963.4913;;;;
2019/12/18 10:58:46;;;;;;;9.7;4.1;;;;;;;13.08;60.60449;963.4919;;;;
2019/12/18 11:01:11;;;;;;;9.9;4;;;;;;;13.11;60.2793;963.4208;;;;
2019/12/18 11:03:37;;;;;;;11.7;4.2;;;;;;;13.1;60.62012;963.35;;;;
2019/12/18 11:06:02;;;;;;;9.5;4.4;;;;;;;13.1;61.12695;963.3777;;;;
2019/12/18 11:08:27;;;;;;;11.6;4.4;;;;;;;13.1;61.46777;963.3689;;;;
2019/12/18 11:10:52;;;;;;;12.1;4.5;;;;;;;13.11;61.78906;963.3483;;;;
2019/12/18 11:13:17;;;;;;;8.4;4.4;;;;;;;13.16;61.15918;963.3878;;;;
2019/12/18 11:17:55;;;;;;;11.5;4.7;;;;;;;13.62;60.66895;963.3297;;;;
2019/12/18 11:20:20;;;;;;;9.7;4.4;;;;;;;13.7;60.60938;963.3201;;;;
2019/12/18 11:22:45;;;;;;;15.7;4.4;;;;;;;13.76;59.61426;963.353;;;;
2019/12/18 11:25:11;;;;;;;12.3;4.7;;;;;;;13.77;60.64258;963.3425;;;;
2019/12/18 11:27:36;;;;;;;11;4.5;;;;;;;13.77;60.0166;963.3228;;;;
2019/12/18 11:30:01;;;;;;;13.1;4.9;;;;;;;13.8;60.42188;963.3184;;;;
2019/12/18 11:32:26;;;;;;;18.3;5.2;;;;;;;13.95;61.24609;963.2919;;;;
2019/12/18 11:34:51;;;;;;;17.9;5.6;;;;;;;13.92;61.49023;963.3087;;;;
2019/12/18 11:37:16;;;;;;;12.9;4.9;;;;;;;13.98;61.11914;963.29;;;;
2019/12/18 11:39:41;;;;;;;15.6;5.1;;;;;;;14.06;60.77734;963.3066;;;;
2019/12/18 11:42:06;;;;;;;10.8;4.5;;;;;;;13.99;61.05273;963.2988;;;;
2019/12/18 11:44:31;;;;;;;12.8;4.9;;;;;;;13.95;60.34766;963.2656;;;;
2019/12/18 11:46:56;;;;;;;17.4;5.3;;;;;;;13.98;60.64844;963.3021;;;;
2019/12/18 11:49:21;;;;;;;15.1;5.2;;;;;;;14;60.78027;963.3092;;;;
2019/12/18 11:51:46;;;;;;;15.6;4.9;;;;;;;13.98;61.01465;963.3201;;;;
2019/12/18 11:54:11;;;;;;;16.6;5.1;;;;;;;13.96;60.98828;963.324;;;;
2019/12/18 11:56:36;;;;;;;11.8;4.7;;;;;;;14.05;60.61035;963.2949;;;;
2019/12/18 12:01:06;;;;;;;15.9;4.6;;;;;;;14.13;60.51563;963.2355;;;;
2019/12/18 12:01:41;;;;;;;15.9;5.2;;;;;;;14.11;61.56348;963.2372;;;;
2019/12/18 12:03:52;;;;;;;12.6;4.6;;;;;;;14.13;61.49609;963.2617;;;;
2019/12/18 12:06:17;;;;;;;16.9;4.9;;;;;;;14.42;61.5127;963.2472;;;;
2019/12/18 12:08:42;;;;;;;16.1;4.9;;;;;;;14.54;61.57813;963.2944;;;;
2019/12/18 12:11:07;;;;;;;19;5.2;;;;;;;14.55;59.24805;963.2112;;;;
2019/12/18 12:13:32;;;;;;;14.4;4.1;;;;;;;14.47;59.36719;963.1731;;;;
2019/12/18 12:15:57;;;;;;;15.4;4.2;;;;;;;14.44;58.80762;963.1724;;;;
2019/12/18 12:18:22;;;;;;;14.3;4.6;;;;;;;14.44;60.85352;963.1793;;;;
2019/12/18 12:20:47;;;;;;;13;4.2;;;;;;;14.47;61.50781;963.2209;;;;
2019/12/18 12:23:12;;;;;;;17.5;4.5;;;;;;;14.48;60.92969;963.2072;;;;
2019/12/18 12:25:37;;;;;;;17.4;4.2;;;;;;;14.54;60.32324;963.1951;;;;
2019/12/18 12:28:02;;;;;;;15;4;;;;;;;14.75;58.96777;963.1914;;;;
2019/12/18 12:30:28;;;;;;;14.9;4.4;;;;;;;14.73;58.6582;963.2329;;;;
2019/12/18 12:32:53;;;;;;;14.8;4.5;;;;;;;14.67;58.43652;963.2642;;;;
2019/12/18 12:35:18;;;;;;;16.4;4.4;;;;;;;14.63;58.91602;963.2564;;;;
2019/12/18 12:37:43;;;;;;;14.3;4.4;;;;;;;14.56;59.65234;963.2422;;;;
2019/12/18 12:40:08;;;;;;;15.9;4.1;;;;;;;14.34;59.2207;963.2877;;;;
2019/12/18 12:42:33;;;;;;;16;4.8;;;;;;;14.3;60.72754;963.2856;;;;
2019/12/18 12:44:58;;;;;;;17.1;4.7;;;;;;;14.18;61.23047;963.3039;;;;
2019/12/18 12:47:23;;;;;;;20.1;6.8;;;;;;;14.06;62.08789;963.2765;;;;
2019/12/18 12:49:48;;;;;;;37.9;17.9;;;;;;;13.94;62.85254;963.3042;;;;
2019/12/18 12:52:13;;;;;;;18.7;7.4;;;;;;;13.85;62.93359;963.2855;;;;
2019/12/18 12:57:08;;;;;;;14.6;5.4;;;;;;;13.93;62.80273;963.3766;;;;
2019/12/18 12:59:29;;;;;;;12.5;5.6;;;;;;;13.9;63.0459;963.3733;;;;
2019/12/18 13:01:58;;;;;;;17.3;5.6;;;;;;;13.86;63.19434;963.376;;;;
2019/12/18 13:04:19;;;;;;;16.2;5.9;;;;;;;13.92;62.88281;963.345;;;;
2019/12/18 13:06:44;;;;;;;13.5;5.5;;;;;;;13.98;62.81055;963.3109;;;;
2019/12/18 13:09:09;;;;;;;16.9;5.7;;;;;;;13.92;62.73047;963.3136;;;;
2019/12/18 13:11:34;;;;;;;13.6;5.6;;;;;;;13.96;62.7002;963.2388;;;;
2019/12/18 13:13:59;;;;;;;17.8;5.3;;;;;;;13.98;62.41895;963.2698;;;;
2019/12/18 13:16:24;;;;;;;19.2;5.7;;;;;;;14.09;62.50781;963.2556;;;;
2019/12/18 13:18:49;;;;;;;23.8;6.2;;;;;;;14.2;62.2373;963.2242;;;;
2019/12/18 13:21:14;;;;;;;17.7;5.4;;;;;;;14.43;61.17285;963.2375;;;;
2019/12/18 13:23:39;;;;;;;17.6;5;;;;;;;14.57;60.08984;963.2025;;;;
2019/12/18 13:26:04;;;;;;;14.8;4.9;;;;;;;14.67;58.83984;963.2371;;;;
2019/12/18 13:28:29;;;;;;;19.2;5.1;;;;;;;14.72;58.28906;963.2844;;;;
2019/12/18 13:30:55;;;;;;;17.8;4.7;;;;;;;14.73;58.82324;963.2631;;;;
2019/12/18 13:33:20;;;;;;;13;4.5;;;;;;;14.84;58.79004;963.2899;;;;
2019/12/18 13:35:45;;;;;;;15.5;4.5;;;;;;;14.95;58.20215;963.3092;;;;
2019/12/18 13:38:10;;;;;;;15.9;4.6;;;;;;;15.06;57.41113;963.2932;;;;
2019/12/18 13:40:35;;;;;;;13.7;4.6;;;;;;;15.14;57.30273;963.2733;;;;
2019/12/18 13:43:00;;;;;;;26.1;4.2;;;;;;;15.2;56.10254;963.2681;;;;
2019/12/18 13:45:25;;;;;;;21.5;4.2;;;;;;;15.25;55.57617;963.2695;;;;
2019/12/18 13:47:50;;;;;;;13.3;4;;;;;;;15.13;55.60742;963.2511;;;;
2019/12/18 13:50:15;;;;;;;14.4;4;;;;;;;15.14;56.04688;963.2903;;;;
2019/12/18 13:52:40;;;;;;;17.8;4.8;;;;;;;15.15;57.05664;963.2401;;;;
2019/12/18 13:55:06;;;;;;;15.4;5.1;;;;;;;15.19;57.20313;963.2361;;;;
2019/12/18 13:57:31;;;;;;;17;4.9;;;;;;;15.2;57.6543;963.1959;;;;
2019/12/18 13:59:56;;;;;;;21;5.5;;;;;;;15.14;57.63574;963.2156;;;;
2019/12/18 14:02:21;;;;;;;18;5.3;;;;;;;15.04;58.01367;963.155;;;;
2019/12/18 14:04:46;;;;;;;17.1;5.4;;;;;;;15.16;57.80273;963.1984;;;;
2019/12/18 14:07:11;;;;;;;18.5;5.2;;;;;;;15.03;58.22461;963.2065;;;;
2019/12/18 14:09:36;;;;;;;18.5;6;;;;;;;15.05;58.42871;963.2319;;;;
2019/12/18 14:12:01;;;;;;;17.1;5.9;;;;;;;14.99;58.45508;963.1561;;;;
2019/12/18 14:14:26;;;;;;;18;5.4;;;;;;;14.97;58.2041;963.191;;;;
2019/12/18 14:16:52;;;;;;;21.2;5.8;;;;;;;14.97;58.03809;963.1881;;;;
2019/12/18 14:19:17;;;;;;;18.8;6;;;;;;;14.93;58.40039;963.1921;;;;
2019/12/18 14:21:42;;;;;;;18.8;6.7;;;;;;;14.76;58.70996;963.1864;;;;
2019/12/18 14:24:07;;;;;;;21;6.6;;;;;;;14.63;59.11816;963.2053;;;;